sensor_id;sensor_type;location;lat;lon;timestamp;pressure;altitude;pressure_sealevel;temperature;humidity
39105;BME280;46464;51.154;13.812;2023-08-21T00:01:47;51691.41;;;-146.96;100.00
39105;BME280;46464;51.154;13.812;2023-08-21T00:04:14;51728.03;;;-146.96;100.00
39105;BME280;46464;51.154;13.812;2023-08-21T00:06:40;51715.81;;;-146.96;100.00
39105;BME280;46464;51.154;13.812;2023-08-21T00:09:07;51730.06;;;-146.96;100.00
39105;BME280;46464;51.154;13.812;2023-08-21T00:11:35;51746.34;;;-146.96;100.00
39105;BME280;46464;51.154;13.812;2023-08-21T00:14:01;51701.56;;;-146.96;100.00
39105;BME280;46464;51.154;13.812;2023-08-21T00:16:28;51719.88;;;-146.96;100.00
39105;BME280;46464;51.154;13.812;2023-08-21T00:18:55;51723.97;;;-146.96;100.00
39105;BME280;46464;51.154;13.812;2023-08-21T00:21:22;51734.13;;;-146.96;100.00
39105;BME280;46464;51.154;13.812;2023-08-21T00:23:48;51742.28;;;-146.96;100.00
39105;BME280;46464;51.154;13.812;2023-08-21T00:26:15;51713.78;;;-146.96;100.00
39105;BME280;46464;51.154;13.812;2023-08-21T00:28:41;51746.34;;;-146.96;100.00
39105;BME280;46464;51.154;13.812;2023-08-21T00:31:08;51740.22;;;-146.96;100.00
39105;BME280;46464;51.154;13.812;2023-08-21T00:33:34;51719.88;;;-146.96;100.00
39105;BME280;46464;51.154;13.812;2023-08-21T00:36:01;51744.31;;;-146.96;100.00
39105;BME280;46464;51.154;13.812;2023-08-21T00:38:27;51768.72;;;-146.96;100.00
39105;BME280;46464;51.154;13.812;2023-08-21T00:40:54;51715.81;;;-146.96;100.00
39105;BME280;46464;51.154;13.812;2023-08-21T00:43:20;51746.34;;;-146.96;100.00
39105;BME280;46464;51.154;13.812;2023-08-21T00:45:48;51711.75;;;-146.96;100.00
39105;BME280;46464;51.154;13.812;2023-08-21T00:48:16;51742.28;;;-146.96;100.00
39105;BME280;46464;51.154;13.812;2023-08-21T00:50:44;51740.22;;;-146.96;100.00
39105;BME280;46464;51.154;13.812;2023-08-21T00:53:11;51728.03;;;-146.96;100.00
39105;BME280;46464;51.154;13.812;2023-08-21T00:55:38;51764.66;;;-146.96;100.00
39105;BME280;46464;51.154;13.812;2023-08-21T00:58:05;51758.53;;;-146.96;100.00
39105;BME280;46464;51.154;13.812;2023-08-21T01:00:33;51756.50;;;-146.96;100.00
39105;BME280;46464;51.154;13.812;2023-08-21T01:03:00;51780.91;;;-146.96;100.00
39105;BME280;46464;51.154;13.812;2023-08-21T01:05:27;51748.38;;;-146.96;100.00
39105;BME280;46464;51.154;13.812;2023-08-21T01:07:59;51748.38;;;-146.96;100.00
39105;BME280;46464;51.154;13.812;2023-08-21T01:10:39;51719.88;;;-146.96;100.00
39105;BME280;46464;51.154;13.812;2023-08-21T01:13:24;51744.31;;;-146.96;100.00
39105;BME280;46464;51.154;13.812;2023-08-21T01:15:56;51774.81;;;-146.96;100.00
39105;BME280;46464;51.154;13.812;2023-08-21T01:18:24;51762.63;;;-146.96;100.00
39105;BME280;46464;51.154;13.812;2023-08-21T01:20:54;51752.44;;;-146.96;100.00
39105;BME280;46464;51.154;13.812;2023-08-21T01:23:31;51744.31;;;-146.96;100.00
39105;BME280;46464;51.154;13.812;2023-08-21T01:25:58;51748.38;;;-146.96;100.00
39105;BME280;46464;51.154;13.812;2023-08-21T01:28:25;51748.38;;;-146.96;100.00
39105;BME280;46464;51.154;13.812;2023-08-21T01:30:58;51740.22;;;-146.96;100.00
39105;BME280;46464;51.154;13.812;2023-08-21T01:33:26;51780.91;;;-146.96;100.00
39105;BME280;46464;51.154;13.812;2023-08-21T01:35:56;51760.56;;;-146.96;100.00
39105;BME280;46464;51.154;13.812;2023-08-21T01:38:24;51780.91;;;-146.96;100.00
39105;BME280;46464;51.154;13.812;2023-08-21T01:40:51;51756.50;;;-146.96;100.00
39105;BME280;46464;51.154;13.812;2023-08-21T01:43:18;51744.31;;;-146.96;100.00
39105;BME280;46464;51.154;13.812;2023-08-21T01:45:46;51762.63;;;-146.96;100.00
39105;BME280;46464;51.154;13.812;2023-08-21T01:48:13;51748.38;;;-146.96;100.00
39105;BME280;46464;51.154;13.812;2023-08-21T01:50:40;51746.34;;;-146.96;100.00
39105;BME280;46464;51.154;13.812;2023-08-21T01:53:06;51719.88;;;-146.96;100.00
39105;BME280;46464;51.154;13.812;2023-08-21T01:55:36;51728.03;;;-146.96;100.00
39105;BME280;46464;51.154;13.812;2023-08-21T01:58:02;51750.41;;;-146.96;100.00
39105;BME280;46464;51.154;13.812;2023-08-21T02:00:29;51754.47;;;-146.96;100.00
39105;BME280;46464;51.154;13.812;2023-08-21T02:02:55;51776.84;;;-146.96;100.00
39105;BME280;46464;51.154;13.812;2023-08-21T02:05:22;51736.16;;;-146.96;100.00
39105;BME280;46464;51.154;13.812;2023-08-21T02:07:49;51758.53;;;-146.96;100.00
39105;BME280;46464;51.154;13.812;2023-08-21T02:10:15;51742.28;;;-146.96;100.00
39105;BME280;46464;51.154;13.812;2023-08-21T02:12:42;51754.47;;;-146.96;100.00
39105;BME280;46464;51.154;13.812;2023-08-21T02:15:08;51713.78;;;-146.96;100.00
39105;BME280;46464;51.154;13.812;2023-08-21T02:17:36;51760.56;;;-146.96;100.00
39105;BME280;46464;51.154;13.812;2023-08-21T02:20:03;51772.78;;;-146.96;100.00
39105;BME280;46464;51.154;13.812;2023-08-21T02:22:30;51742.28;;;-146.96;100.00
39105;BME280;46464;51.154;13.812;2023-08-21T02:24:56;51760.56;;;-146.96;100.00
39105;BME280;46464;51.154;13.812;2023-08-21T02:27:23;51787.03;;;-146.96;100.00
39105;BME280;46464;51.154;13.812;2023-08-21T02:29:49;51764.66;;;-146.96;100.00
39105;BME280;46464;51.154;13.812;2023-08-21T02:32:16;51780.91;;;-146.96;100.00
39105;BME280;46464;51.154;13.812;2023-08-21T02:34:42;51738.19;;;-146.96;100.00
39105;BME280;46464;51.154;13.812;2023-08-21T02:37:09;51780.91;;;-146.96;100.00
39105;BME280;46464;51.154;13.812;2023-08-21T02:39:35;51752.44;;;-146.96;100.00
39105;BME280;46464;51.154;13.812;2023-08-21T02:42:02;51813.47;;;-146.96;100.00
39105;BME280;46464;51.154;13.812;2023-08-21T02:44:28;51772.78;;;-146.96;100.00
39105;BME280;46464;51.154;13.812;2023-08-21T02:46:55;51799.22;;;-146.96;100.00
39105;BME280;46464;51.154;13.812;2023-08-21T02:49:21;51793.13;;;-146.96;100.00
39105;BME280;46464;51.154;13.812;2023-08-21T02:51:48;51772.78;;;-146.96;100.00
39105;BME280;46464;51.154;13.812;2023-08-21T02:54:15;51776.84;;;-146.96;100.00
39105;BME280;46464;51.154;13.812;2023-08-21T02:56:41;51772.78;;;-146.96;100.00
39105;BME280;46464;51.154;13.812;2023-08-21T02:59:08;51817.53;;;-146.96;100.00
39105;BME280;46464;51.154;13.812;2023-08-21T03:01:34;51776.84;;;-146.96;100.00
39105;BME280;46464;51.154;13.812;2023-08-21T03:04:01;51770.75;;;-146.96;100.00
39105;BME280;46464;51.154;13.812;2023-08-21T03:06:28;51770.75;;;-146.96;100.00
39105;BME280;46464;51.154;13.812;2023-08-21T03:08:54;51791.09;;;-146.96;100.00
39105;BME280;46464;51.154;13.812;2023-08-21T03:11:21;51789.06;;;-146.96;100.00
39105;BME280;46464;51.154;13.812;2023-08-21T03:13:47;51774.81;;;-146.96;100.00
39105;BME280;46464;51.154;13.812;2023-08-21T03:16:14;51795.16;;;-146.96;100.00
39105;BME280;46464;51.154;13.812;2023-08-21T03:19:00;51815.50;;;-146.96;100.00
39105;BME280;46464;51.154;13.812;2023-08-21T03:21:27;51782.97;;;-146.96;100.00
39105;BME280;46464;51.154;13.812;2023-08-21T03:23:56;51772.78;;;-146.96;100.00
39105;BME280;46464;51.154;13.812;2023-08-21T03:26:23;51766.69;;;-146.96;100.00
39105;BME280;46464;51.154;13.812;2023-08-21T03:28:50;51772.78;;;-146.96;100.00
39105;BME280;46464;51.154;13.812;2023-08-21T03:31:17;51793.13;;;-146.96;100.00
39105;BME280;46464;51.154;13.812;2023-08-21T03:33:43;51837.88;;;-146.96;100.00
39105;BME280;46464;51.154;13.812;2023-08-21T03:36:10;51801.25;;;-146.96;100.00
39105;BME280;46464;51.154;13.812;2023-08-21T03:38:37;51841.97;;;-146.96;100.00
39105;BME280;46464;51.154;13.812;2023-08-21T03:41:03;51789.06;;;-146.96;100.00
39105;BME280;46464;51.154;13.812;2023-08-21T03:43:32;51764.66;;;-146.96;100.00
39105;BME280;46464;51.154;13.812;2023-08-21T03:45:58;51776.84;;;-146.96;100.00
39105;BME280;46464;51.154;13.812;2023-08-21T03:48:25;51758.53;;;-146.96;100.00
39105;BME280;46464;51.154;13.812;2023-08-21T03:50:51;51770.75;;;-146.96;100.00
39105;BME280;46464;51.154;13.812;2023-08-21T03:53:18;51785.00;;;-146.96;100.00
39105;BME280;46464;51.154;13.812;2023-08-21T03:55:45;51821.63;;;-146.96;100.00
39105;BME280;46464;51.154;13.812;2023-08-21T03:58:12;51805.34;;;-146.96;100.00
39105;BME280;46464;51.154;13.812;2023-08-21T04:00:39;51811.44;;;-146.96;100.00
39105;BME280;46464;51.154;13.812;2023-08-21T04:03:06;51780.91;;;-146.96;100.00
39105;BME280;46464;51.154;13.812;2023-08-21T04:05:33;51805.34;;;-146.96;100.00
39105;BME280;46464;51.154;13.812;2023-08-21T04:07:59;51827.72;;;-146.96;100.00
39105;BME280;46464;51.154;13.812;2023-08-21T04:10:26;51817.53;;;-146.96;100.00
39105;BME280;46464;51.154;13.812;2023-08-21T04:12:52;51805.34;;;-146.96;100.00
39105;BME280;46464;51.154;13.812;2023-08-21T04:15:19;51764.66;;;-146.96;100.00
39105;BME280;46464;51.154;13.812;2023-08-21T04:17:45;51795.16;;;-146.96;100.00
39105;BME280;46464;51.154;13.812;2023-08-21T04:20:12;51805.34;;;-146.96;100.00
39105;BME280;46464;51.154;13.812;2023-08-21T04:22:38;51793.13;;;-146.96;100.00
39105;BME280;46464;51.154;13.812;2023-08-21T04:25:06;51813.47;;;-146.96;100.00
39105;BME280;46464;51.154;13.812;2023-08-21T04:27:33;51809.41;;;-146.96;100.00
39105;BME280;46464;51.154;13.812;2023-08-21T04:29:59;51799.22;;;-146.96;100.00
39105;BME280;46464;51.154;13.812;2023-08-21T04:32:26;51766.69;;;-146.96;100.00
39105;BME280;46464;51.154;13.812;2023-08-21T04:34:53;51809.41;;;-146.96;100.00
39105;BME280;46464;51.154;13.812;2023-08-21T04:37:20;51823.66;;;-146.96;100.00
39105;BME280;46464;51.154;13.812;2023-08-21T04:39:50;51839.91;;;-146.96;100.00
39105;BME280;46464;51.154;13.812;2023-08-21T04:42:18;51817.53;;;-146.96;100.00
39105;BME280;46464;51.154;13.812;2023-08-21T04:44:44;51803.31;;;-146.96;100.00
39105;BME280;46464;51.154;13.812;2023-08-21T04:47:27;51791.09;;;-146.96;100.00
39105;BME280;46464;51.154;13.812;2023-08-21T04:49:54;51805.34;;;-146.96;100.00
39105;BME280;46464;51.154;13.812;2023-08-21T04:52:22;51809.41;;;-146.96;100.00
39105;BME280;46464;51.154;13.812;2023-08-21T04:54:49;51791.09;;;-146.96;100.00
39105;BME280;46464;51.154;13.812;2023-08-21T04:57:16;51854.16;;;-146.96;100.00
39105;BME280;46464;51.154;13.812;2023-08-21T04:59:44;51785.00;;;-146.96;100.00
39105;BME280;46464;51.154;13.812;2023-08-21T05:02:10;51811.44;;;-146.96;100.00
39105;BME280;46464;51.154;13.812;2023-08-21T05:04:37;51811.44;;;-146.96;100.00
39105;BME280;46464;51.154;13.812;2023-08-21T05:07:03;51829.75;;;-146.96;100.00
39105;BME280;46464;51.154;13.812;2023-08-21T05:09:31;51795.16;;;-146.96;100.00
39105;BME280;46464;51.154;13.812;2023-08-21T05:11:58;51801.25;;;-146.96;100.00
39105;BME280;46464;51.154;13.812;2023-08-21T05:14:25;51811.44;;;-146.96;100.00
39105;BME280;46464;51.154;13.812;2023-08-21T05:16:51;51780.91;;;-146.96;100.00
39105;BME280;46464;51.154;13.812;2023-08-21T05:19:18;51807.38;;;-146.96;100.00
39105;BME280;46464;51.154;13.812;2023-08-21T05:21:45;51793.13;;;-146.96;100.00
39105;BME280;46464;51.154;13.812;2023-08-21T05:24:12;51795.16;;;-146.96;100.00
39105;BME280;46464;51.154;13.812;2023-08-21T05:26:38;51793.13;;;-146.96;100.00
39105;BME280;46464;51.154;13.812;2023-08-21T05:29:05;51803.31;;;-146.96;100.00
39105;BME280;46464;51.154;13.812;2023-08-21T05:31:32;51829.75;;;-146.96;100.00
39105;BME280;46464;51.154;13.812;2023-08-21T05:33:58;51766.69;;;-146.96;100.00
39105;BME280;46464;51.154;13.812;2023-08-21T05:36:25;51782.97;;;-146.96;100.00
39105;BME280;46464;51.154;13.812;2023-08-21T05:38:51;51785.00;;;-146.96;100.00
39105;BME280;46464;51.154;13.812;2023-08-21T05:41:18;51799.22;;;-146.96;100.00
39105;BME280;46464;51.154;13.812;2023-08-21T05:43:44;51744.31;;;-146.96;100.00
39105;BME280;46464;51.154;13.812;2023-08-21T05:46:12;51768.72;;;-146.96;100.00
39105;BME280;46464;51.154;13.812;2023-08-21T05:48:38;51746.34;;;-146.96;100.00
39105;BME280;46464;51.154;13.812;2023-08-21T05:51:05;51728.03;;;-146.96;100.00
39105;BME280;46464;51.154;13.812;2023-08-21T05:53:31;51703.63;;;-146.96;100.00
39105;BME280;46464;51.154;13.812;2023-08-21T05:55:58;51707.69;;;-146.96;100.00
39105;BME280;46464;51.154;13.812;2023-08-21T05:58:24;51717.84;;;-146.96;100.00
39105;BME280;46464;51.154;13.812;2023-08-21T06:00:55;51713.78;;;-146.96;100.00
39105;BME280;46464;51.154;13.812;2023-08-21T06:03:22;51701.56;;;-146.96;100.00
39105;BME280;46464;51.154;13.812;2023-08-21T06:05:49;51689.38;;;-146.96;100.00
39105;BME280;46464;51.154;13.812;2023-08-21T06:08:15;51703.63;;;-146.96;100.00
39105;BME280;46464;51.154;13.812;2023-08-21T06:10:42;51713.78;;;-146.96;100.00
39105;BME280;46464;51.154;13.812;2023-08-21T06:13:08;51675.13;;;-146.96;100.00
39105;BME280;46464;51.154;13.812;2023-08-21T06:15:35;51669.03;;;-146.96;100.00
39105;BME280;46464;51.154;13.812;2023-08-21T06:18:01;51658.84;;;-146.96;100.00
39105;BME280;46464;51.154;13.812;2023-08-21T06:20:28;51679.19;;;-146.96;100.00
39105;BME280;46464;51.154;13.812;2023-08-21T06:22:54;51683.28;;;-146.96;100.00
39105;BME280;46464;51.154;13.812;2023-08-21T06:27:56;51717.84;;;-146.96;100.00
39105;BME280;46464;51.154;13.812;2023-08-21T06:30:28;51652.75;;;-146.96;100.00
39105;BME280;46464;51.154;13.812;2023-08-21T06:32:55;51622.25;;;-146.96;100.00
39105;BME280;46464;51.154;13.812;2023-08-21T06:35:22;51646.66;;;-146.96;96.42
39105;BME280;46464;51.154;13.812;2023-08-21T06:37:48;51624.28;;;-146.96;93.91
39105;BME280;46464;51.154;13.812;2023-08-21T06:40:15;51595.78;;;-146.96;91.21
39105;BME280;46464;51.154;13.812;2023-08-21T06:42:41;51608.00;;;-146.96;90.27
39105;BME280;46464;51.154;13.812;2023-08-21T06:45:08;51573.41;;;-146.96;89.12
39105;BME280;46464;51.154;13.812;2023-08-21T06:47:35;51573.41;;;-146.96;87.27
39105;BME280;46464;51.154;13.812;2023-08-21T06:50:01;51575.44;;;-146.96;84.14
39105;BME280;46464;51.154;13.812;2023-08-21T06:52:28;51587.66;;;-146.96;83.33
39105;BME280;46464;51.154;13.812;2023-08-21T06:54:54;51553.06;;;-146.96;80.83
39105;BME280;46464;51.154;13.812;2023-08-21T06:57:20;51601.91;;;-146.96;80.80
39105;BME280;46464;51.154;13.812;2023-08-21T06:59:47;51563.25;;;-146.96;80.61
39105;BME280;46464;51.154;13.812;2023-08-21T07:02:13;51559.16;;;-146.96;81.21
39105;BME280;46464;51.154;13.812;2023-08-21T07:04:40;51591.72;;;-146.96;80.08
39105;BME280;46464;51.154;13.812;2023-08-21T07:07:06;51595.78;;;-146.96;80.07
39105;BME280;46464;51.154;13.812;2023-08-21T07:09:33;51605.97;;;-146.96;80.38
39105;BME280;46464;51.154;13.812;2023-08-21T07:11:59;51573.41;;;-146.96;81.29
39105;BME280;46464;51.154;13.812;2023-08-21T07:14:27;51575.44;;;-146.96;82.36
39105;BME280;46464;51.154;13.812;2023-08-21T07:16:54;51614.09;;;-146.96;81.97
39105;BME280;46464;51.154;13.812;2023-08-21T07:19:21;51579.50;;;-146.96;81.79
39105;BME280;46464;51.154;13.812;2023-08-21T07:21:47;51581.56;;;-146.96;81.62
39105;BME280;46464;51.154;13.812;2023-08-21T07:24:13;51605.97;;;-146.96;81.52
39105;BME280;46464;51.154;13.812;2023-08-21T07:26:40;51557.13;;;-146.96;80.98
39105;BME280;46464;51.154;13.812;2023-08-21T07:29:06;51571.38;;;-146.96;80.82
39105;BME280;46464;51.154;13.812;2023-08-21T07:31:34;51601.91;;;-146.96;81.15
39105;BME280;46464;51.154;13.812;2023-08-21T07:34:00;51591.72;;;-146.96;81.34
39105;BME280;46464;51.154;13.812;2023-08-21T07:36:27;51577.47;;;-146.96;79.86
39105;BME280;46464;51.154;13.812;2023-08-21T07:38:53;51557.13;;;-146.96;77.99
39105;BME280;46464;51.154;13.812;2023-08-21T07:41:20;51530.69;;;-146.96;78.32
39105;BME280;46464;51.154;13.812;2023-08-21T07:43:46;51532.72;;;-146.96;78.48
39105;BME280;46464;51.154;13.812;2023-08-21T07:46:13;51524.59;;;-146.96;76.05
39105;BME280;46464;51.154;13.812;2023-08-21T07:48:42;51506.28;;;-146.96;74.84
39105;BME280;46464;51.154;13.812;2023-08-21T07:51:09;51522.56;;;-146.96;74.93
39105;BME280;46464;51.154;13.812;2023-08-21T07:53:36;51520.53;;;-146.96;75.56
39105;BME280;46464;51.154;13.812;2023-08-21T07:56:03;51530.69;;;-146.96;76.29
39105;BME280;46464;51.154;13.812;2023-08-21T07:58:30;51508.31;;;-146.96;76.51
39105;BME280;46464;51.154;13.812;2023-08-21T08:00:58;51524.59;;;-146.96;75.68
39105;BME280;46464;51.154;13.812;2023-08-21T08:03:25;51492.03;;;-146.96;75.46
39105;BME280;46464;51.154;13.812;2023-08-21T08:05:52;51485.94;;;-146.96;72.20
39105;BME280;46464;51.154;13.812;2023-08-21T08:08:21;51453.38;;;-146.96;70.57
39105;BME280;46464;51.154;13.812;2023-08-21T08:10:48;51481.88;;;-146.96;71.42
39105;BME280;46464;51.154;13.812;2023-08-21T08:13:14;51467.63;;;-146.96;71.62
39105;BME280;46464;51.154;13.812;2023-08-21T08:15:41;51487.97;;;-146.96;71.93
39105;BME280;46464;51.154;13.812;2023-08-21T08:18:11;51500.19;;;-146.96;70.73
39105;BME280;46464;51.154;13.812;2023-08-21T08:20:38;51445.25;;;-146.96;70.88
39105;BME280;46464;51.154;13.812;2023-08-21T08:23:06;51445.25;;;-146.96;71.15
39105;BME280;46464;51.154;13.812;2023-08-21T08:25:32;51455.41;;;-146.96;69.89
39105;BME280;46464;51.154;13.812;2023-08-21T08:27:59;51433.03;;;-146.96;68.33
39105;BME280;46464;51.154;13.812;2023-08-21T08:30:26;51398.47;;;-146.96;67.21
39105;BME280;46464;51.154;13.812;2023-08-21T08:32:52;51420.84;;;-146.96;66.02
39105;BME280;46464;51.154;13.812;2023-08-21T08:35:19;51443.22;;;-146.96;66.15
39105;BME280;46464;51.154;13.812;2023-08-21T08:37:45;51433.03;;;-146.96;64.65
39105;BME280;46464;51.154;13.812;2023-08-21T08:40:11;51433.03;;;-146.96;64.90
39105;BME280;46464;51.154;13.812;2023-08-21T08:42:38;51437.13;;;-146.96;64.49
39105;BME280;46464;51.154;13.812;2023-08-21T08:45:06;51443.22;;;-146.96;64.69
39105;BME280;46464;51.154;13.812;2023-08-21T08:47:33;51435.09;;;-146.96;63.94
39105;BME280;46464;51.154;13.812;2023-08-21T08:50:05;51410.66;;;-146.96;63.65
39105;BME280;46464;51.154;13.812;2023-08-21T08:52:35;51416.78;;;-146.96;64.07
39105;BME280;46464;51.154;13.812;2023-08-21T08:55:02;51424.91;;;-146.96;62.78
39105;BME280;46464;51.154;13.812;2023-08-21T08:57:30;51386.25;;;-146.96;61.30
39105;BME280;46464;51.154;13.812;2023-08-21T08:59:56;51426.94;;;-146.96;60.42
39105;BME280;46464;51.154;13.812;2023-08-21T09:02:24;51424.91;;;-146.96;60.23
39105;BME280;46464;51.154;13.812;2023-08-21T09:04:52;51400.50;;;-146.96;61.39
39105;BME280;46464;51.154;13.812;2023-08-21T09:07:19;51382.19;;;-146.96;61.02
39105;BME280;46464;51.154;13.812;2023-08-21T09:09:47;51378.13;;;-146.96;59.53
39105;BME280;46464;51.154;13.812;2023-08-21T09:12:16;51367.94;;;-146.96;58.54
39105;BME280;46464;51.154;13.812;2023-08-21T09:14:44;51378.13;;;-146.96;57.23
39105;BME280;46464;51.154;13.812;2023-08-21T09:17:11;51351.69;;;-146.96;55.04
39105;BME280;46464;51.154;13.812;2023-08-21T09:19:38;51353.72;;;-146.96;55.86
39105;BME280;46464;51.154;13.812;2023-08-21T09:22:15;51292.69;;;-146.96;55.45
39105;BME280;46464;51.154;13.812;2023-08-21T09:25:07;51321.16;;;-146.96;54.83
39105;BME280;46464;51.154;13.812;2023-08-21T09:27:38;51321.16;;;-146.96;53.95
39105;BME280;46464;51.154;13.812;2023-08-21T09:30:09;51355.75;;;-146.96;53.70
39105;BME280;46464;51.154;13.812;2023-08-21T09:32:55;51365.91;;;-146.96;54.71
39105;BME280;46464;51.154;13.812;2023-08-21T09:35:23;51317.09;;;-146.96;54.72
39105;BME280;46464;51.154;13.812;2023-08-21T09:37:50;51313.03;;;-146.96;52.35
39105;BME280;46464;51.154;13.812;2023-08-21T09:40:21;51331.34;;;-146.96;53.28
39105;BME280;46464;51.154;13.812;2023-08-21T09:42:57;51337.44;;;-146.96;51.88
39105;BME280;46464;51.154;13.812;2023-08-21T09:45:28;51313.03;;;-146.96;53.04
39105;BME280;46464;51.154;13.812;2023-08-21T09:47:56;51306.91;;;-146.96;53.27
39105;BME280;46464;51.154;13.812;2023-08-21T09:50:24;51329.31;;;-146.96;52.36
39105;BME280;46464;51.154;13.812;2023-08-21T09:52:51;51313.03;;;-146.96;52.30
39105;BME280;46464;51.154;13.812;2023-08-21T09:55:55;51300.81;;;-146.96;53.13
39105;BME280;46464;51.154;13.812;2023-08-21T09:58:22;51304.88;;;-146.96;52.92
39105;BME280;46464;51.154;13.812;2023-08-21T10:00:49;51313.03;;;-146.96;50.66
39105;BME280;46464;51.154;13.812;2023-08-21T10:03:21;51313.03;;;-146.96;51.36
39105;BME280;46464;51.154;13.812;2023-08-21T10:05:48;51304.88;;;-146.96;51.18
39105;BME280;46464;51.154;13.812;2023-08-21T10:08:21;51288.63;;;-146.96;50.40
39105;BME280;46464;51.154;13.812;2023-08-21T10:10:49;51313.03;;;-146.96;51.84
39105;BME280;46464;51.154;13.812;2023-08-21T10:13:16;51288.63;;;-146.96;49.84
39105;BME280;46464;51.154;13.812;2023-08-21T10:15:44;51278.44;;;-146.96;49.87
39105;BME280;46464;51.154;13.812;2023-08-21T10:18:18;51313.03;;;-146.96;49.84
39105;BME280;46464;51.154;13.812;2023-08-21T10:20:46;51278.44;;;-146.96;49.92
39105;BME280;46464;51.154;13.812;2023-08-21T10:23:30;51294.72;;;-146.96;50.25
39105;BME280;46464;51.154;13.812;2023-08-21T10:25:59;51282.50;;;-146.96;48.58
39105;BME280;46464;51.154;13.812;2023-08-21T10:28:53;51284.53;;;-146.96;50.33
39105;BME280;46464;51.154;13.812;2023-08-21T10:31:36;51254.03;;;-146.96;51.21
39105;BME280;46464;51.154;13.812;2023-08-21T10:34:06;51274.38;;;-146.96;49.34
39105;BME280;46464;51.154;13.812;2023-08-21T10:39:28;51223.53;;;-146.96;47.36
39105;BME280;46464;51.154;13.812;2023-08-21T10:42:04;51239.78;;;-146.96;47.75
39105;BME280;46464;51.154;13.812;2023-08-21T10:49:50;51213.34;;;-146.96;46.53
39105;BME280;46464;51.154;13.812;2023-08-21T10:52:25;51227.59;;;-146.96;47.30
39105;BME280;46464;51.154;13.812;2023-08-21T10:54:53;51233.69;;;-146.96;45.99
39105;BME280;46464;51.154;13.812;2023-08-21T10:57:22;51241.81;;;-146.96;48.70
39105;BME280;46464;51.154;13.812;2023-08-21T10:59:56;51211.31;;;-146.96;46.90
39105;BME280;46464;51.154;13.812;2023-08-21T11:02:25;51215.38;;;-146.96;47.67
39105;BME280;46464;51.154;13.812;2023-08-21T11:04:52;51203.19;;;-146.96;47.17
39105;BME280;46464;51.154;13.812;2023-08-21T11:07:19;51223.53;;;-146.96;48.48
39105;BME280;46464;51.154;13.812;2023-08-21T11:09:48;51227.59;;;-146.96;48.04
39105;BME280;46464;51.154;13.812;2023-08-21T11:12:19;51201.16;;;-146.96;48.59
39105;BME280;46464;51.154;13.812;2023-08-21T11:14:46;51199.09;;;-146.96;50.26
39105;BME280;46464;51.154;13.812;2023-08-21T11:17:13;51174.69;;;-146.96;46.54
39105;BME280;46464;51.154;13.812;2023-08-21T11:19:41;51168.59;;;-146.96;46.56
39105;BME280;46464;51.154;13.812;2023-08-21T11:22:08;51207.25;;;-146.96;45.67
39105;BME280;46464;51.154;13.812;2023-08-21T11:27:05;51195.03;;;-146.96;45.89
39105;BME280;46464;51.154;13.812;2023-08-21T11:29:42;51197.06;;;-146.96;48.39
39105;BME280;46464;51.154;13.812;2023-08-21T11:32:23;51142.16;;;-146.96;45.68
39105;BME280;46464;51.154;13.812;2023-08-21T11:34:54;51223.53;;;-146.96;45.68
39105;BME280;46464;51.154;13.812;2023-08-21T11:37:26;51146.22;;;-146.96;47.35
39105;BME280;46464;51.154;13.812;2023-08-21T11:42:31;51146.22;;;-146.96;45.28
39105;BME280;46464;51.154;13.812;2023-08-21T11:44:59;51138.09;;;-146.96;45.59
39105;BME280;46464;51.154;13.812;2023-08-21T11:47:33;51134.03;;;-146.96;44.99
39105;BME280;46464;51.154;13.812;2023-08-21T11:50:05;51111.66;;;-146.96;43.98
39105;BME280;46464;51.154;13.812;2023-08-21T11:52:32;51136.06;;;-146.96;45.16
39105;BME280;46464;51.154;13.812;2023-08-21T11:54:58;51101.47;;;-146.96;44.47
39105;BME280;46464;51.154;13.812;2023-08-21T11:57:25;51117.75;;;-146.96;43.38
39105;BME280;46464;51.154;13.812;2023-08-21T11:59:55;51129.94;;;-146.96;44.42
39105;BME280;46464;51.154;13.812;2023-08-21T12:02:26;51081.13;;;-146.96;43.32
39105;BME280;46464;51.154;13.812;2023-08-21T12:05:07;51101.47;;;-146.96;43.53
39105;BME280;46464;51.154;13.812;2023-08-21T12:07:39;51081.13;;;-146.96;41.40
39105;BME280;46464;51.154;13.812;2023-08-21T12:10:07;51117.75;;;-146.96;42.99
39105;BME280;46464;51.154;13.812;2023-08-21T12:12:33;51146.22;;;-146.96;43.97
39105;BME280;46464;51.154;13.812;2023-08-21T12:15:00;51089.25;;;-146.96;45.63
39105;BME280;46464;51.154;13.812;2023-08-21T12:17:26;51117.75;;;-146.96;42.98
39105;BME280;46464;51.154;13.812;2023-08-21T12:19:53;51073.00;;;-146.96;42.72
39105;BME280;46464;51.154;13.812;2023-08-21T12:22:19;51068.94;;;-146.96;42.48
39105;BME280;46464;51.154;13.812;2023-08-21T12:24:46;51044.53;;;-146.96;42.18
39105;BME280;46464;51.154;13.812;2023-08-21T12:27:12;51007.91;;;-146.96;42.24
39105;BME280;46464;51.154;13.812;2023-08-21T12:29:39;51011.97;;;-146.96;40.55
39105;BME280;46464;51.154;13.812;2023-08-21T12:32:05;51011.97;;;-146.96;39.89
39105;BME280;46464;51.154;13.812;2023-08-21T12:34:32;50991.63;;;-146.96;39.30
39105;BME280;46464;51.154;13.812;2023-08-21T12:36:58;50959.09;;;-146.96;40.31
39105;BME280;46464;51.154;13.812;2023-08-21T12:39:25;50950.94;;;-146.96;38.66
39105;BME280;46464;51.154;13.812;2023-08-21T12:41:51;50930.63;;;-146.96;38.73
39105;BME280;46464;51.154;13.812;2023-08-21T12:44:18;50975.34;;;-146.96;38.22
39105;BME280;46464;51.154;13.812;2023-08-21T12:46:44;50952.97;;;-146.96;39.24